createdAt,value
2023-01-26T00:02:35.103Z,45.17
2023-01-26T00:07:44.098Z,42.90
2023-01-26T00:12:49.620Z,44.88
2023-01-26T00:17:55.172Z,45.60
2023-01-26T00:23:00.510Z,41.17
2023-01-26T00:28:05.794Z,44.85
2023-01-26T00:33:11.392Z,41.15
2023-01-26T00:38:17.209Z,42.40
2023-01-26T00:43:22.797Z,45.37
2023-01-26T00:48:30.114Z,39.60
2023-01-26T00:53:35.297Z,41.55
2023-01-26T00:58:42.028Z,40.90
2023-01-26T01:03:49.537Z,47.50
2023-01-26T01:08:54.868Z,44.37
2023-01-26T01:14:00.423Z,46.00
2023-01-26T01:19:06.181Z,45.70
2023-01-26T01:24:14.790Z,39.17
2023-01-26T01:29:20.718Z,45.22
2023-01-26T01:34:26.276Z,46.85
2023-01-26T01:39:31.735Z,47.72
2023-01-26T01:44:41.239Z,50.45
2023-01-26T01:49:50.955Z,45.72
2023-01-26T01:55:03.440Z,51.25
2023-01-26T02:00:11.004Z,41.67
2023-01-26T02:05:28.501Z,46.95
2023-01-26T02:10:35.029Z,50.20
2023-01-26T02:15:40.865Z,52.27
2023-01-26T02:20:57.311Z,45.33
2023-01-26T02:26:25.643Z,49.78
2023-01-26T02:31:31.886Z,52.95
2023-01-26T02:36:37.697Z,43.85
2023-01-26T02:42:03.545Z,54.47
2023-01-26T02:47:19.187Z,50.53
2023-01-26T02:52:30.640Z,41.85
2023-01-26T02:57:41.022Z,50.78
2023-01-26T03:02:46.910Z,51.17
2023-01-26T03:13:07.079Z,58.92
2023-01-26T03:18:35.966Z,55.15
2023-01-26T03:23:59.640Z,44.33
2023-01-26T03:29:06.159Z,31.05
2023-01-26T03:34:11.931Z,40.87
2023-01-26T03:39:37.346Z,41.60
2023-01-26T03:45:01.875Z,51.40
2023-01-26T03:50:26.620Z,49.75
2023-01-26T03:55:50.720Z,63.83
2023-01-26T04:00:57.286Z,40.22
2023-01-26T04:06:20.887Z,67.20
2023-01-26T04:11:27.012Z,61.40
2023-01-26T04:16:51.147Z,60.37
2023-01-26T04:21:56.621Z,50.55
2023-01-26T04:27:03.880Z,62.58
2023-01-26T04:32:14.479Z,57.95
2023-01-26T04:37:20.166Z,39.67
2023-01-26T04:42:27.278Z,56.60
2023-01-26T04:47:35.412Z,56.30
2023-01-26T04:57:46.996Z,61.42
2023-01-26T05:02:52.468Z,51.58
2023-01-26T05:07:58.302Z,61.30
2023-01-26T05:13:07.014Z,60.78
2023-01-26T05:18:23.341Z,49.87
2023-01-26T05:23:35.342Z,31.63
2023-01-26T05:28:58.890Z,65.10
2023-01-26T05:34:04.832Z,58.20
2023-01-26T05:39:13.353Z,49.92
2023-01-26T05:44:20.899Z,56.07
2023-01-26T05:49:30.514Z,45.67
2023-01-26T05:54:36.272Z,68.60
2023-01-26T05:59:42.304Z,54.00
2023-01-26T06:04:48.353Z,65.43
2023-01-26T06:09:54.390Z,45.88
2023-01-26T06:15:14.376Z,59.00
2023-01-26T06:20:22.969Z,53.22
2023-01-26T06:25:34.964Z,64.55
2023-01-26T06:30:43.505Z,46.20
2023-01-26T06:35:51.322Z,65.70
2023-01-26T06:40:57.381Z,56.63
2023-01-26T06:46:03.044Z,56.67
2023-01-26T06:51:13.306Z,50.67
2023-01-26T06:56:48.106Z,56.97
2023-01-26T07:01:58.541Z,45.33
2023-01-26T07:07:04.098Z,58.30
2023-01-26T07:12:11.045Z,38.15
2023-01-26T07:17:19.007Z,49.22
2023-01-26T07:22:24.865Z,44.80
2023-01-26T07:27:31.045Z,41.73
2023-01-26T07:32:36.502Z,44.13
2023-01-26T07:37:42.443Z,47.57
2023-01-26T07:42:48.660Z,54.50
2023-01-26T07:48:00.931Z,51.53
2023-01-26T07:53:06.941Z,48.22
2023-01-26T07:58:13.348Z,44.90
2023-01-26T08:03:21.430Z,49.33
2023-01-26T08:08:27.295Z,48.92
2023-01-26T08:13:35.664Z,41.30
2023-01-26T08:18:42.692Z,63.85
2023-01-26T08:23:54.409Z,52.25
2023-01-26T08:29:00.641Z,54.42
2023-01-26T08:34:06.151Z,56.15
2023-01-26T08:39:11.935Z,52.58
2023-01-26T08:44:17.432Z,59.93
2023-01-26T08:49:22.903Z,47.53
2023-01-26T08:54:30.592Z,40.35
2023-01-26T08:59:37.399Z,46.13
2023-01-26T09:04:43.343Z,60.58
2023-01-26T09:09:49.737Z,58.28
2023-01-26T09:14:55.182Z,59.90
2023-01-26T09:20:00.649Z,62.60
2023-01-26T09:25:07.463Z,64.55
2023-01-26T09:30:13.163Z,65.78
2023-01-26T09:35:18.993Z,64.00
2023-01-26T09:40:40.380Z,60.38
2023-01-26T09:46:15.483Z,67.55
2023-01-26T09:51:29.172Z,74.65
2023-01-26T09:56:35.543Z,57.55
2023-01-26T10:01:52.855Z,73.10
2023-01-26T10:06:59.844Z,72.10
2023-01-26T10:12:27.163Z,70.38
2023-01-26T10:17:41.060Z,69.50
2023-01-26T10:22:47.071Z,77.05
2023-01-26T10:27:57.239Z,76.47
2023-01-26T10:33:02.550Z,76.88
2023-01-26T10:38:28.510Z,72.40
2023-01-26T10:43:43.612Z,94.13
2023-01-26T10:48:57.970Z,84.78
2023-01-26T10:54:19.033Z,77.00
2023-01-26T10:59:25.600Z,75.60
2023-01-26T11:04:31.436Z,76.45
2023-01-26T11:09:37.415Z,75.35
2023-01-26T11:14:44.135Z,73.68
2023-01-26T11:19:57.246Z,69.38
2023-01-26T11:25:12.882Z,71.55
2023-01-26T11:30:37.346Z,75.75
2023-01-26T11:36:04.159Z,72.10
2023-01-26T11:41:16.143Z,66.18
2023-01-26T11:46:32.067Z,56.30
2023-01-26T11:52:04.941Z,62.40
2023-01-26T11:57:44.180Z,39.67
2023-01-26T12:02:57.349Z,24.67
2023-01-26T12:09:51.915Z,56.83
2023-01-26T12:15:06.087Z,40.95
2023-01-26T12:20:26.914Z,32.35
2023-01-26T12:25:49.289Z,40.45
2023-01-26T12:31:03.273Z,42.55
2023-01-26T12:36:22.139Z,51.47
2023-01-26T12:41:43.366Z,37.80
2023-01-26T12:46:54.650Z,21.58
2023-01-26T12:52:30.499Z,16.08
2023-01-26T12:57:44.276Z,13.98
2023-01-26T13:02:52.959Z,30.50
2023-01-26T13:08:27.140Z,29.85
2023-01-26T13:13:42.202Z,19.25
2023-01-26T13:18:59.173Z,33.20
2023-01-26T13:24:18.306Z,24.10
2023-01-26T13:29:37.695Z,21.52
2023-01-26T13:34:49.390Z,47.63
2023-01-26T13:40:03.922Z,20.38
2023-01-26T13:45:20.411Z,43.88
2023-01-26T13:50:33.322Z,16.73
2023-01-26T13:55:47.210Z,14.88
2023-01-26T14:01:15.383Z,32.67
2023-01-26T14:06:26.311Z,47.63
2023-01-26T14:11:36.368Z,28.45
2023-01-26T14:16:49.249Z,28.50
2023-01-26T14:22:04.484Z,26.50
2023-01-26T14:27:29.443Z,36.53
2023-01-26T14:32:39.439Z,48.08
2023-01-26T14:37:54.434Z,66.15
2023-01-26T14:43:05.806Z,29.13
2023-01-26T14:48:17.883Z,36.35
2023-01-26T14:53:33.781Z,36.00
2023-01-26T14:58:41.315Z,29.95
2023-01-26T15:03:50.617Z,41.13
2023-01-26T15:09:05.405Z,25.98
2023-01-26T15:14:23.158Z,31.83
2023-01-26T15:19:44.119Z,23.35
2023-01-26T15:24:56.374Z,36.05
2023-01-26T15:30:10.191Z,40.13
2023-01-26T15:35:37.130Z,28.08
2023-01-26T15:40:52.959Z,41.75
2023-01-26T15:46:03.601Z,27.15
2023-01-26T15:51:16.318Z,30.40
2023-01-26T15:56:22.319Z,45.08
2023-01-26T16:01:28.176Z,48.83
2023-01-26T16:06:35.979Z,50.27
2023-01-26T16:11:45.885Z,44.60
2023-01-26T16:16:51.372Z,42.08
2023-01-26T16:21:56.898Z,44.85
2023-01-26T16:27:09.568Z,30.88
2023-01-26T16:32:27.341Z,30.92
2023-01-26T16:37:35.685Z,41.63
2023-01-26T16:43:13.196Z,39.08
2023-01-26T16:48:19.541Z,37.45
2023-01-26T16:53:28.269Z,41.08
2023-01-26T16:58:34.673Z,53.00
2023-01-26T17:08:44.972Z,25.77
2023-01-26T17:13:50.614Z,54.30
2023-01-26T17:18:55.945Z,33.90
2023-01-26T17:24:01.778Z,37.63
2023-01-26T17:29:07.263Z,29.60
2023-01-26T17:34:13.045Z,50.73
2023-01-26T17:39:20.269Z,42.55
2023-01-26T17:44:25.730Z,43.88
2023-01-26T17:49:31.159Z,51.60
2023-01-26T17:54:36.545Z,26.92
2023-01-26T17:59:42.209Z,52.50
2023-01-26T18:04:47.391Z,39.50
2023-01-26T18:09:52.895Z,27.17
2023-01-26T18:14:58.147Z,26.85
2023-01-26T18:20:04.120Z,25.13
2023-01-26T18:25:09.784Z,20.30
2023-01-26T18:30:15.481Z,30.17
2023-01-26T18:35:20.768Z,27.92
2023-01-26T18:40:25.962Z,28.50
2023-01-26T18:45:31.590Z,19.70
2023-01-26T18:50:37.066Z,27.20
2023-01-26T18:55:42.495Z,20.33
2023-01-26T19:00:48.024Z,29.58
2023-01-26T19:05:53.989Z,33.53
2023-01-26T19:10:59.597Z,26.63
2023-01-26T19:16:06.804Z,23.13
2023-01-26T19:21:13.308Z,28.05
2023-01-26T19:26:20.762Z,20.88
2023-01-26T19:31:27.842Z,23.45
2023-01-26T19:36:34.564Z,17.70
2023-01-26T19:46:46.098Z,18.17
2023-01-26T19:51:51.760Z,30.23
2023-01-26T19:56:57.612Z,28.77
2023-01-26T20:02:03.181Z,20.92
2023-01-26T20:07:09.598Z,23.33
2023-01-26T20:12:14.769Z,19.88
2023-01-26T20:17:20.567Z,21.90
2023-01-26T20:22:25.838Z,24.77
2023-01-26T20:27:32.450Z,21.83
2023-01-26T20:32:37.883Z,19.52
2023-01-26T20:37:43.257Z,19.23
2023-01-26T20:42:49.238Z,16.65
2023-01-26T20:47:54.561Z,27.13
2023-01-26T20:52:59.838Z,21.70
2023-01-26T20:58:07.026Z,23.55
2023-01-26T21:03:12.468Z,23.50
2023-01-26T21:08:17.856Z,18.25
2023-01-26T21:13:23.284Z,16.02
2023-01-26T21:18:28.652Z,21.73
2023-01-26T21:23:34.918Z,20.02
2023-01-26T21:28:40.062Z,17.98
2023-01-26T21:33:46.499Z,26.48
2023-01-26T21:38:54.160Z,15.85
2023-01-26T21:44:03.928Z,17.65
2023-01-26T21:49:10.435Z,26.52
2023-01-26T21:59:21.586Z,16.25
2023-01-26T22:04:28.787Z,18.53
2023-01-26T22:09:37.311Z,22.48
2023-01-26T22:14:43.179Z,16.10
2023-01-26T22:19:48.716Z,15.07
2023-01-26T22:24:54.216Z,15.63
2023-01-26T22:29:59.832Z,13.23
2023-01-26T22:35:05.128Z,16.02
2023-01-26T22:40:11.113Z,14.00
2023-01-26T22:45:16.889Z,14.95
2023-01-26T22:50:22.272Z,13.00
2023-01-26T22:55:27.720Z,17.90
2023-01-26T23:00:34.792Z,14.32
2023-01-26T23:05:40.128Z,13.38
2023-01-26T23:10:45.297Z,11.63
2023-01-26T23:15:50.661Z,15.30
2023-01-26T23:20:56.077Z,12.15
2023-01-26T23:26:02.016Z,14.48
2023-01-26T23:31:07.880Z,14.43
2023-01-26T23:36:15.282Z,16.83
2023-01-26T23:41:21.180Z,13.85
2023-01-26T23:46:26.838Z,13.73
2023-01-26T23:51:32.484Z,10.93
2023-01-26T23:56:37.747Z,14.90
